sensor_id;sensor_type;location;lat;lon;timestamp;P1;durP1;ratioP1;P2;durP2;ratioP2
4738;SDS011;2383;48.632;10.156;2022-09-09T00:01:14;2.38;;;1.40;;
4738;SDS011;2383;48.632;10.156;2022-09-09T00:19:01;3.10;;;1.30;;
4738;SDS011;2383;48.632;10.156;2022-09-09T00:31:33;2.83;;;1.35;;
4738;SDS011;2383;48.632;10.156;2022-09-09T00:35:36;7.03;;;1.30;;
4738;SDS011;2383;48.632;10.156;2022-09-09T00:39:41;3.25;;;1.30;;
4738;SDS011;2383;48.632;10.156;2022-09-09T00:43:55;4.07;;;1.25;;
4738;SDS011;2383;48.632;10.156;2022-09-09T00:48:19;1.27;;;1.15;;
4738;SDS011;2383;48.632;10.156;2022-09-09T01:01:25;3.65;;;1.40;;
4738;SDS011;2383;48.632;10.156;2022-09-09T01:09:54;3.55;;;1.05;;
4738;SDS011;2383;48.632;10.156;2022-09-09T01:14:05;3.08;;;1.02;;
4738;SDS011;2383;48.632;10.156;2022-09-09T01:18:26;2.47;;;1.30;;
4738;SDS011;2383;48.632;10.156;2022-09-09T01:22:48;5.00;;;1.30;;
4738;SDS011;2383;48.632;10.156;2022-09-09T01:27:01;5.55;;;1.30;;
4738;SDS011;2383;48.632;10.156;2022-09-09T01:31:05;3.38;;;1.17;;
4738;SDS011;2383;48.632;10.156;2022-09-09T01:39:31;8.70;;;1.30;;
4738;SDS011;2383;48.632;10.156;2022-09-09T01:43:36;1.90;;;1.30;;
4738;SDS011;2383;48.632;10.156;2022-09-09T01:47:38;5.40;;;1.10;;
4738;SDS011;2383;48.632;10.156;2022-09-09T01:51:40;5.57;;;1.70;;
4738;SDS011;2383;48.632;10.156;2022-09-09T01:55:46;2.35;;;1.50;;
4738;SDS011;2383;48.632;10.156;2022-09-09T02:00:07;5.05;;;1.80;;
4738;SDS011;2383;48.632;10.156;2022-09-09T02:04:18;1.38;;;1.20;;
4738;SDS011;2383;48.632;10.156;2022-09-09T02:08:57;4.83;;;1.30;;
4738;SDS011;2383;48.632;10.156;2022-09-09T02:13:07;2.65;;;1.27;;
4738;SDS011;2383;48.632;10.156;2022-09-09T02:17:11;1.23;;;1.00;;
4738;SDS011;2383;48.632;10.156;2022-09-09T02:21:18;5.23;;;1.20;;
4738;SDS011;2383;48.632;10.156;2022-09-09T02:25:21;3.50;;;1.27;;
4738;SDS011;2383;48.632;10.156;2022-09-09T02:29:26;3.60;;;1.33;;
4738;SDS011;2383;48.632;10.156;2022-09-09T02:33:35;7.13;;;1.40;;
4738;SDS011;2383;48.632;10.156;2022-09-09T02:37:41;4.82;;;1.27;;
4738;SDS011;2383;48.632;10.156;2022-09-09T02:41:47;2.93;;;1.10;;
4738;SDS011;2383;48.632;10.156;2022-09-09T02:46:16;7.67;;;2.00;;
4738;SDS011;2383;48.632;10.156;2022-09-09T02:50:22;3.92;;;1.23;;
4738;SDS011;2383;48.632;10.156;2022-09-09T02:54:42;3.70;;;1.43;;
4738;SDS011;2383;48.632;10.156;2022-09-09T02:58:44;3.15;;;1.25;;
4738;SDS011;2383;48.632;10.156;2022-09-09T03:02:47;2.83;;;1.27;;
4738;SDS011;2383;48.632;10.156;2022-09-09T03:06:49;7.23;;;1.47;;
4738;SDS011;2383;48.632;10.156;2022-09-09T03:10:50;4.07;;;1.33;;
4738;SDS011;2383;48.632;10.156;2022-09-09T03:14:55;2.67;;;1.30;;
4738;SDS011;2383;48.632;10.156;2022-09-09T03:18:57;4.10;;;1.43;;
4738;SDS011;2383;48.632;10.156;2022-09-09T03:22:59;2.83;;;1.20;;
4738;SDS011;2383;48.632;10.156;2022-09-09T03:27:01;4.67;;;1.60;;
4738;SDS011;2383;48.632;10.156;2022-09-09T03:31:03;4.72;;;1.35;;
4738;SDS011;2383;48.632;10.156;2022-09-09T03:35:06;4.00;;;1.40;;
4738;SDS011;2383;48.632;10.156;2022-09-09T03:39:08;2.15;;;1.17;;
4738;SDS011;2383;48.632;10.156;2022-09-09T03:43:10;2.70;;;1.40;;
4738;SDS011;2383;48.632;10.156;2022-09-09T03:47:11;5.57;;;1.40;;
4738;SDS011;2383;48.632;10.156;2022-09-09T03:51:14;4.63;;;1.53;;
4738;SDS011;2383;48.632;10.156;2022-09-09T03:55:17;2.33;;;1.53;;
4738;SDS011;2383;48.632;10.156;2022-09-09T03:59:18;2.35;;;1.55;;
4738;SDS011;2383;48.632;10.156;2022-09-09T04:03:22;3.17;;;1.50;;
4738;SDS011;2383;48.632;10.156;2022-09-09T04:07:28;5.95;;;1.75;;
4738;SDS011;2383;48.632;10.156;2022-09-09T04:11:30;2.65;;;1.80;;
4738;SDS011;2383;48.632;10.156;2022-09-09T04:15:32;3.07;;;1.60;;
4738;SDS011;2383;48.632;10.156;2022-09-09T04:19:34;2.03;;;1.48;;
4738;SDS011;2383;48.632;10.156;2022-09-09T04:23:36;3.08;;;1.63;;
4738;SDS011;2383;48.632;10.156;2022-09-09T04:27:38;4.27;;;1.60;;
4738;SDS011;2383;48.632;10.156;2022-09-09T04:31:39;5.85;;;1.85;;
4738;SDS011;2383;48.632;10.156;2022-09-09T04:35:46;4.90;;;1.65;;
4738;SDS011;2383;48.632;10.156;2022-09-09T04:39:50;3.55;;;1.90;;
4738;SDS011;2383;48.632;10.156;2022-09-09T04:43:52;4.43;;;1.80;;
4738;SDS011;2383;48.632;10.156;2022-09-09T04:47:54;4.53;;;2.10;;
4738;SDS011;2383;48.632;10.156;2022-09-09T04:51:56;4.82;;;1.90;;
4738;SDS011;2383;48.632;10.156;2022-09-09T05:00:07;10.90;;;2.03;;
4738;SDS011;2383;48.632;10.156;2022-09-09T05:04:09;5.23;;;2.10;;
4738;SDS011;2383;48.632;10.156;2022-09-09T05:08:11;4.53;;;2.00;;
4738;SDS011;2383;48.632;10.156;2022-09-09T05:12:13;2.80;;;1.95;;
4738;SDS011;2383;48.632;10.156;2022-09-09T05:16:15;4.70;;;2.20;;
4738;SDS011;2383;48.632;10.156;2022-09-09T05:20:17;5.55;;;2.30;;
4738;SDS011;2383;48.632;10.156;2022-09-09T05:24:19;4.32;;;1.65;;
4738;SDS011;2383;48.632;10.156;2022-09-09T05:28:21;6.00;;;2.10;;
4738;SDS011;2383;48.632;10.156;2022-09-09T05:32:23;9.48;;;2.50;;
4738;SDS011;2383;48.632;10.156;2022-09-09T05:36:25;5.53;;;2.10;;
4738;SDS011;2383;48.632;10.156;2022-09-09T05:40:27;3.53;;;2.30;;
4738;SDS011;2383;48.632;10.156;2022-09-09T05:44:28;8.17;;;2.80;;
4738;SDS011;2383;48.632;10.156;2022-09-09T05:48:31;4.60;;;2.43;;
4738;SDS011;2383;48.632;10.156;2022-09-09T05:56:55;6.70;;;2.25;;
4738;SDS011;2383;48.632;10.156;2022-09-09T06:01:06;10.07;;;2.88;;
4738;SDS011;2383;48.632;10.156;2022-09-09T06:05:15;5.20;;;2.63;;
4738;SDS011;2383;48.632;10.156;2022-09-09T06:09:17;13.63;;;3.50;;
4738;SDS011;2383;48.632;10.156;2022-09-09T06:13:19;6.35;;;2.80;;
4738;SDS011;2383;48.632;10.156;2022-09-09T06:17:20;6.75;;;2.80;;
4738;SDS011;2383;48.632;10.156;2022-09-09T06:21:23;5.33;;;2.80;;
4738;SDS011;2383;48.632;10.156;2022-09-09T06:25:26;8.07;;;2.78;;
4738;SDS011;2383;48.632;10.156;2022-09-09T06:29:28;8.25;;;2.33;;
4738;SDS011;2383;48.632;10.156;2022-09-09T06:33:30;7.30;;;2.33;;
4738;SDS011;2383;48.632;10.156;2022-09-09T06:37:35;11.40;;;3.00;;
4738;SDS011;2383;48.632;10.156;2022-09-09T06:41:37;16.27;;;2.30;;
4738;SDS011;2383;48.632;10.156;2022-09-09T06:45:39;10.23;;;2.50;;
4738;SDS011;2383;48.632;10.156;2022-09-09T06:49:41;10.23;;;4.72;;
4738;SDS011;2383;48.632;10.156;2022-09-09T06:53:52;16.45;;;3.45;;
4738;SDS011;2383;48.632;10.156;2022-09-09T06:57:55;17.27;;;3.35;;
4738;SDS011;2383;48.632;10.156;2022-09-09T07:01:58;14.45;;;3.30;;
4738;SDS011;2383;48.632;10.156;2022-09-09T07:05:59;14.55;;;3.35;;
4738;SDS011;2383;48.632;10.156;2022-09-09T07:10:02;13.65;;;2.65;;
4738;SDS011;2383;48.632;10.156;2022-09-09T07:14:05;6.70;;;3.47;;
4738;SDS011;2383;48.632;10.156;2022-09-09T07:18:07;11.30;;;3.53;;
4738;SDS011;2383;48.632;10.156;2022-09-09T07:22:11;8.20;;;3.47;;
4738;SDS011;2383;48.632;10.156;2022-09-09T07:26:14;7.15;;;2.97;;
4738;SDS011;2383;48.632;10.156;2022-09-09T07:30:18;6.63;;;2.78;;
4738;SDS011;2383;48.632;10.156;2022-09-09T07:34:27;3.05;;;2.25;;
4738;SDS011;2383;48.632;10.156;2022-09-09T07:38:28;4.80;;;2.45;;
4738;SDS011;2383;48.632;10.156;2022-09-09T07:42:31;7.90;;;2.80;;
4738;SDS011;2383;48.632;10.156;2022-09-09T07:46:34;5.25;;;2.97;;
4738;SDS011;2383;48.632;10.156;2022-09-09T07:50:44;7.25;;;2.78;;
4738;SDS011;2383;48.632;10.156;2022-09-09T07:54:46;5.82;;;2.92;;
4738;SDS011;2383;48.632;10.156;2022-09-09T07:58:48;3.67;;;2.22;;
4738;SDS011;2383;48.632;10.156;2022-09-09T08:02:50;3.95;;;2.30;;
4738;SDS011;2383;48.632;10.156;2022-09-09T08:06:54;4.82;;;2.08;;
4738;SDS011;2383;48.632;10.156;2022-09-09T08:11:01;7.88;;;3.70;;
4738;SDS011;2383;48.632;10.156;2022-09-09T08:15:08;5.50;;;2.45;;
4738;SDS011;2383;48.632;10.156;2022-09-09T08:19:10;6.00;;;2.55;;
4738;SDS011;2383;48.632;10.156;2022-09-09T08:23:12;4.07;;;2.45;;
4738;SDS011;2383;48.632;10.156;2022-09-09T08:27:14;6.13;;;2.33;;
4738;SDS011;2383;48.632;10.156;2022-09-09T08:31:17;5.95;;;2.17;;
4738;SDS011;2383;48.632;10.156;2022-09-09T08:35:19;4.68;;;2.58;;
4738;SDS011;2383;48.632;10.156;2022-09-09T08:39:21;3.60;;;2.20;;
4738;SDS011;2383;48.632;10.156;2022-09-09T08:43:24;2.78;;;1.98;;
4738;SDS011;2383;48.632;10.156;2022-09-09T08:51:48;3.42;;;1.70;;
4738;SDS011;2383;48.632;10.156;2022-09-09T08:55:52;3.67;;;2.00;;
4738;SDS011;2383;48.632;10.156;2022-09-09T08:59:57;2.75;;;1.55;;
4738;SDS011;2383;48.632;10.156;2022-09-09T09:12:20;7.07;;;1.67;;
4738;SDS011;2383;48.632;10.156;2022-09-09T09:16:34;3.05;;;1.67;;
4738;SDS011;2383;48.632;10.156;2022-09-09T09:28:53;3.45;;;1.35;;
4738;SDS011;2383;48.632;10.156;2022-09-09T09:33:01;2.42;;;1.20;;
4738;SDS011;2383;48.632;10.156;2022-09-09T09:37:16;4.05;;;1.27;;
4738;SDS011;2383;48.632;10.156;2022-09-09T09:41:36;3.20;;;1.00;;
4738;SDS011;2383;48.632;10.156;2022-09-09T09:45:43;3.65;;;1.38;;
4738;SDS011;2383;48.632;10.156;2022-09-09T09:50:16;3.35;;;1.17;;
4738;SDS011;2383;48.632;10.156;2022-09-09T09:54:30;2.78;;;1.00;;
4738;SDS011;2383;48.632;10.156;2022-09-09T09:58:58;2.13;;;1.08;;
4738;SDS011;2383;48.632;10.156;2022-09-09T10:03:00;2.60;;;0.90;;
4738;SDS011;2383;48.632;10.156;2022-09-09T10:07:09;5.43;;;1.17;;
4738;SDS011;2383;48.632;10.156;2022-09-09T10:20:11;3.00;;;1.15;;
4738;SDS011;2383;48.632;10.156;2022-09-09T10:28:42;4.32;;;1.13;;
4738;SDS011;2383;48.632;10.156;2022-09-09T10:42:00;2.67;;;0.73;;
4738;SDS011;2383;48.632;10.156;2022-09-09T10:59:17;3.50;;;0.98;;
4738;SDS011;2383;48.632;10.156;2022-09-09T11:03:24;4.60;;;0.98;;
4738;SDS011;2383;48.632;10.156;2022-09-09T11:07:40;1.30;;;0.80;;
4738;SDS011;2383;48.632;10.156;2022-09-09T11:11:55;2.80;;;0.80;;
4738;SDS011;2383;48.632;10.156;2022-09-09T11:15:59;1.88;;;0.80;;
4738;SDS011;2383;48.632;10.156;2022-09-09T11:20:06;5.53;;;0.82;;
4738;SDS011;2383;48.632;10.156;2022-09-09T11:24:19;1.75;;;0.77;;
4738;SDS011;2383;48.632;10.156;2022-09-09T11:28:41;2.63;;;0.90;;
4738;SDS011;2383;48.632;10.156;2022-09-09T11:41:39;6.18;;;1.00;;
4738;SDS011;2383;48.632;10.156;2022-09-09T11:45:49;5.70;;;1.17;;
4738;SDS011;2383;48.632;10.156;2022-09-09T11:50:07;2.28;;;0.90;;
4738;SDS011;2383;48.632;10.156;2022-09-09T11:54:28;2.53;;;0.82;;
4738;SDS011;2383;48.632;10.156;2022-09-09T11:58:34;1.95;;;0.90;;
4738;SDS011;2383;48.632;10.156;2022-09-09T12:02:48;3.53;;;0.80;;
4738;SDS011;2383;48.632;10.156;2022-09-09T12:10:58;2.97;;;1.00;;
4738;SDS011;2383;48.632;10.156;2022-09-09T12:27:47;2.33;;;0.90;;
4738;SDS011;2383;48.632;10.156;2022-09-09T12:32:15;2.22;;;1.00;;
4738;SDS011;2383;48.632;10.156;2022-09-09T12:36:22;2.03;;;0.70;;
4738;SDS011;2383;48.632;10.156;2022-09-09T12:40:31;5.07;;;0.80;;
4738;SDS011;2383;48.632;10.156;2022-09-09T12:44:36;5.50;;;0.70;;
4738;SDS011;2383;48.632;10.156;2022-09-09T12:48:41;1.60;;;0.73;;
4738;SDS011;2383;48.632;10.156;2022-09-09T12:52:47;2.83;;;1.10;;
4738;SDS011;2383;48.632;10.156;2022-09-09T12:56:51;1.63;;;0.60;;
4738;SDS011;2383;48.632;10.156;2022-09-09T13:00:54;3.05;;;0.75;;
4738;SDS011;2383;48.632;10.156;2022-09-09T13:05:20;1.48;;;0.50;;
4738;SDS011;2383;48.632;10.156;2022-09-09T13:09:27;2.28;;;0.90;;
4738;SDS011;2383;48.632;10.156;2022-09-09T13:13:34;1.25;;;0.80;;
4738;SDS011;2383;48.632;10.156;2022-09-09T13:17:39;3.75;;;0.90;;
4738;SDS011;2383;48.632;10.156;2022-09-09T13:21:42;4.03;;;1.00;;
4738;SDS011;2383;48.632;10.156;2022-09-09T13:25:52;3.22;;;1.00;;
4738;SDS011;2383;48.632;10.156;2022-09-09T13:29:55;5.85;;;1.05;;
4738;SDS011;2383;48.632;10.156;2022-09-09T13:33:57;5.93;;;1.00;;
4738;SDS011;2383;48.632;10.156;2022-09-09T13:38:06;3.25;;;0.90;;
4738;SDS011;2383;48.632;10.156;2022-09-09T13:42:21;7.03;;;1.20;;
4738;SDS011;2383;48.632;10.156;2022-09-09T13:46:40;2.22;;;1.00;;
4738;SDS011;2383;48.632;10.156;2022-09-09T13:50:42;2.25;;;1.00;;
4738;SDS011;2383;48.632;10.156;2022-09-09T13:54:55;3.65;;;1.17;;
4738;SDS011;2383;48.632;10.156;2022-09-09T13:58:59;2.85;;;0.90;;
4738;SDS011;2383;48.632;10.156;2022-09-09T14:03:00;2.60;;;0.80;;
4738;SDS011;2383;48.632;10.156;2022-09-09T14:07:03;4.28;;;0.70;;
4738;SDS011;2383;48.632;10.156;2022-09-09T14:11:05;1.73;;;0.88;;
4738;SDS011;2383;48.632;10.156;2022-09-09T14:15:12;4.00;;;1.00;;
4738;SDS011;2383;48.632;10.156;2022-09-09T14:19:13;2.60;;;1.00;;
4738;SDS011;2383;48.632;10.156;2022-09-09T14:23:16;2.90;;;0.95;;
4738;SDS011;2383;48.632;10.156;2022-09-09T14:27:18;4.95;;;0.90;;
4738;SDS011;2383;48.632;10.156;2022-09-09T14:31:20;2.80;;;0.90;;
4738;SDS011;2383;48.632;10.156;2022-09-09T14:35:22;2.00;;;0.85;;
4738;SDS011;2383;48.632;10.156;2022-09-09T14:39:25;1.88;;;0.80;;
4738;SDS011;2383;48.632;10.156;2022-09-09T14:43:27;2.50;;;0.70;;
4738;SDS011;2383;48.632;10.156;2022-09-09T14:47:29;1.95;;;0.73;;
4738;SDS011;2383;48.632;10.156;2022-09-09T14:51:31;2.60;;;0.85;;
4738;SDS011;2383;48.632;10.156;2022-09-09T14:55:33;3.70;;;0.85;;
4738;SDS011;2383;48.632;10.156;2022-09-09T14:59:35;3.50;;;0.75;;
4738;SDS011;2383;48.632;10.156;2022-09-09T15:03:40;2.10;;;0.60;;
4738;SDS011;2383;48.632;10.156;2022-09-09T15:07:44;2.97;;;0.68;;
4738;SDS011;2383;48.632;10.156;2022-09-09T15:11:47;2.42;;;0.82;;
4738;SDS011;2383;48.632;10.156;2022-09-09T15:15:49;1.40;;;0.80;;
4738;SDS011;2383;48.632;10.156;2022-09-09T15:19:51;2.38;;;0.80;;
4738;SDS011;2383;48.632;10.156;2022-09-09T15:23:54;1.80;;;0.80;;
4738;SDS011;2383;48.632;10.156;2022-09-09T15:27:56;1.88;;;0.70;;
4738;SDS011;2383;48.632;10.156;2022-09-09T15:31:58;2.13;;;0.85;;
4738;SDS011;2383;48.632;10.156;2022-09-09T15:35:59;3.85;;;0.95;;
4738;SDS011;2383;48.632;10.156;2022-09-09T15:40:01;2.80;;;0.80;;
4738;SDS011;2383;48.632;10.156;2022-09-09T15:44:04;1.98;;;0.85;;
4738;SDS011;2383;48.632;10.156;2022-09-09T15:48:06;4.50;;;0.90;;
4738;SDS011;2383;48.632;10.156;2022-09-09T15:52:09;2.22;;;0.90;;
4738;SDS011;2383;48.632;10.156;2022-09-09T15:56:12;1.85;;;0.68;;
4738;SDS011;2383;48.632;10.156;2022-09-09T16:00:15;4.13;;;0.80;;
4738;SDS011;2383;48.632;10.156;2022-09-09T16:04:19;2.67;;;0.77;;
4738;SDS011;2383;48.632;10.156;2022-09-09T16:08:31;4.68;;;0.90;;
4738;SDS011;2383;48.632;10.156;2022-09-09T16:12:34;4.90;;;0.95;;
4738;SDS011;2383;48.632;10.156;2022-09-09T16:16:36;4.05;;;0.80;;
4738;SDS011;2383;48.632;10.156;2022-09-09T16:20:38;4.25;;;1.00;;
4738;SDS011;2383;48.632;10.156;2022-09-09T16:24:42;3.70;;;1.10;;
4738;SDS011;2383;48.632;10.156;2022-09-09T16:28:45;2.00;;;0.88;;
4738;SDS011;2383;48.632;10.156;2022-09-09T16:32:48;1.80;;;0.80;;
4738;SDS011;2383;48.632;10.156;2022-09-09T16:36:51;2.08;;;0.85;;
4738;SDS011;2383;48.632;10.156;2022-09-09T16:40:58;2.70;;;0.98;;
4738;SDS011;2383;48.632;10.156;2022-09-09T16:45:03;1.02;;;0.57;;
4738;SDS011;2383;48.632;10.156;2022-09-09T16:49:10;2.17;;;0.70;;
4738;SDS011;2383;48.632;10.156;2022-09-09T16:53:13;2.47;;;0.82;;
4738;SDS011;2383;48.632;10.156;2022-09-09T16:57:16;4.25;;;1.10;;
4738;SDS011;2383;48.632;10.156;2022-09-09T17:01:17;2.13;;;0.88;;
4738;SDS011;2383;48.632;10.156;2022-09-09T17:05:19;4.38;;;1.08;;
4738;SDS011;2383;48.632;10.156;2022-09-09T17:09:24;1.58;;;0.90;;
4738;SDS011;2383;48.632;10.156;2022-09-09T17:13:31;4.30;;;1.40;;
4738;SDS011;2383;48.632;10.156;2022-09-09T17:17:34;2.58;;;1.08;;
4738;SDS011;2383;48.632;10.156;2022-09-09T17:21:36;2.45;;;0.95;;
4738;SDS011;2383;48.632;10.156;2022-09-09T17:25:59;1.48;;;0.90;;
4738;SDS011;2383;48.632;10.156;2022-09-09T17:30:01;6.25;;;2.65;;
4738;SDS011;2383;48.632;10.156;2022-09-09T17:34:04;6.47;;;1.25;;
4738;SDS011;2383;48.632;10.156;2022-09-09T17:38:06;4.70;;;0.80;;
4738;SDS011;2383;48.632;10.156;2022-09-09T17:42:07;7.15;;;0.75;;
4738;SDS011;2383;48.632;10.156;2022-09-09T17:46:13;5.60;;;0.80;;
4738;SDS011;2383;48.632;10.156;2022-09-09T17:50:23;3.60;;;0.80;;
4738;SDS011;2383;48.632;10.156;2022-09-09T17:54:25;6.07;;;1.67;;
4738;SDS011;2383;48.632;10.156;2022-09-09T17:58:26;5.57;;;1.20;;
4738;SDS011;2383;48.632;10.156;2022-09-09T18:02:28;2.83;;;1.02;;
4738;SDS011;2383;48.632;10.156;2022-09-09T18:06:34;1.98;;;0.90;;
4738;SDS011;2383;48.632;10.156;2022-09-09T18:10:38;5.07;;;1.10;;
4738;SDS011;2383;48.632;10.156;2022-09-09T18:14:40;2.83;;;1.33;;
4738;SDS011;2383;48.632;10.156;2022-09-09T18:18:42;2.30;;;0.90;;
4738;SDS011;2383;48.632;10.156;2022-09-09T18:22:44;3.30;;;1.05;;
4738;SDS011;2383;48.632;10.156;2022-09-09T18:26:47;4.15;;;1.10;;
4738;SDS011;2383;48.632;10.156;2022-09-09T18:30:51;2.85;;;0.95;;
4738;SDS011;2383;48.632;10.156;2022-09-09T18:34:53;1.65;;;0.70;;
4738;SDS011;2383;48.632;10.156;2022-09-09T18:38:57;1.33;;;0.85;;
4738;SDS011;2383;48.632;10.156;2022-09-09T18:42:59;1.52;;;0.70;;
4738;SDS011;2383;48.632;10.156;2022-09-09T18:47:01;6.72;;;1.10;;
4738;SDS011;2383;48.632;10.156;2022-09-09T18:51:07;3.22;;;0.65;;
4738;SDS011;2383;48.632;10.156;2022-09-09T18:55:10;2.90;;;0.95;;
4738;SDS011;2383;48.632;10.156;2022-09-09T18:59:14;1.33;;;0.73;;
4738;SDS011;2383;48.632;10.156;2022-09-09T19:03:25;3.97;;;0.90;;
4738;SDS011;2383;48.632;10.156;2022-09-09T19:07:28;1.20;;;0.88;;
4738;SDS011;2383;48.632;10.156;2022-09-09T19:11:30;3.95;;;0.90;;
4738;SDS011;2383;48.632;10.156;2022-09-09T19:15:34;8.55;;;1.20;;
4738;SDS011;2383;48.632;10.156;2022-09-09T19:19:37;3.10;;;0.93;;
4738;SDS011;2383;48.632;10.156;2022-09-09T19:23:43;4.60;;;1.20;;
4738;SDS011;2383;48.632;10.156;2022-09-09T19:27:49;2.65;;;1.40;;
4738;SDS011;2383;48.632;10.156;2022-09-09T19:31:52;5.40;;;1.30;;
4738;SDS011;2383;48.632;10.156;2022-09-09T19:36:16;5.80;;;1.30;;
4738;SDS011;2383;48.632;10.156;2022-09-09T19:40:19;2.70;;;0.80;;
4738;SDS011;2383;48.632;10.156;2022-09-09T19:44:22;3.75;;;1.00;;
4738;SDS011;2383;48.632;10.156;2022-09-09T19:48:24;3.55;;;1.23;;
4738;SDS011;2383;48.632;10.156;2022-09-09T19:52:27;2.30;;;0.90;;
4738;SDS011;2383;48.632;10.156;2022-09-09T19:56:28;4.00;;;1.30;;
4738;SDS011;2383;48.632;10.156;2022-09-09T20:00:32;3.55;;;1.52;;
4738;SDS011;2383;48.632;10.156;2022-09-09T20:04:40;3.80;;;1.20;;
4738;SDS011;2383;48.632;10.156;2022-09-09T20:08:42;4.05;;;1.30;;
4738;SDS011;2383;48.632;10.156;2022-09-09T20:12:47;2.38;;;1.35;;
4738;SDS011;2383;48.632;10.156;2022-09-09T20:16:49;6.10;;;1.00;;
4738;SDS011;2383;48.632;10.156;2022-09-09T20:20:55;2.88;;;1.00;;
4738;SDS011;2383;48.632;10.156;2022-09-09T20:24:57;4.18;;;1.02;;
4738;SDS011;2383;48.632;10.156;2022-09-09T20:29:00;2.35;;;1.10;;
4738;SDS011;2383;48.632;10.156;2022-09-09T20:33:05;2.47;;;1.23;;
4738;SDS011;2383;48.632;10.156;2022-09-09T20:37:08;3.00;;;1.63;;
4738;SDS011;2383;48.632;10.156;2022-09-09T20:41:10;9.02;;;4.72;;
4738;SDS011;2383;48.632;10.156;2022-09-09T20:45:14;7.10;;;3.33;;
4738;SDS011;2383;48.632;10.156;2022-09-09T20:49:17;5.50;;;3.00;;
4738;SDS011;2383;48.632;10.156;2022-09-09T20:53:21;3.88;;;2.10;;
4738;SDS011;2383;48.632;10.156;2022-09-09T20:57:23;1.95;;;1.58;;
4738;SDS011;2383;48.632;10.156;2022-09-09T21:01:25;2.08;;;1.25;;
4738;SDS011;2383;48.632;10.156;2022-09-09T21:05:27;3.08;;;0.90;;
4738;SDS011;2383;48.632;10.156;2022-09-09T21:09:29;4.57;;;1.85;;
4738;SDS011;2383;48.632;10.156;2022-09-09T21:13:32;3.60;;;1.25;;
4738;SDS011;2383;48.632;10.156;2022-09-09T21:17:37;2.85;;;1.15;;
4738;SDS011;2383;48.632;10.156;2022-09-09T21:21:40;3.15;;;0.95;;
4738;SDS011;2383;48.632;10.156;2022-09-09T21:25:42;3.50;;;1.00;;
4738;SDS011;2383;48.632;10.156;2022-09-09T21:29:44;2.30;;;1.15;;
4738;SDS011;2383;48.632;10.156;2022-09-09T21:33:47;2.55;;;1.40;;
4738;SDS011;2383;48.632;10.156;2022-09-09T21:37:49;3.70;;;1.30;;
4738;SDS011;2383;48.632;10.156;2022-09-09T21:41:51;4.38;;;1.30;;
4738;SDS011;2383;48.632;10.156;2022-09-09T21:45:53;3.97;;;1.20;;
4738;SDS011;2383;48.632;10.156;2022-09-09T21:49:54;4.30;;;1.20;;
4738;SDS011;2383;48.632;10.156;2022-09-09T21:53:56;7.68;;;1.08;;
4738;SDS011;2383;48.632;10.156;2022-09-09T21:57:58;4.47;;;1.10;;
4738;SDS011;2383;48.632;10.156;2022-09-09T22:02:00;2.22;;;1.30;;
4738;SDS011;2383;48.632;10.156;2022-09-09T22:06:03;3.17;;;1.00;;
4738;SDS011;2383;48.632;10.156;2022-09-09T22:10:06;1.95;;;1.17;;
4738;SDS011;2383;48.632;10.156;2022-09-09T22:14:10;3.40;;;1.05;;
4738;SDS011;2383;48.632;10.156;2022-09-09T22:18:12;2.85;;;1.15;;
4738;SDS011;2383;48.632;10.156;2022-09-09T22:22:16;1.17;;;0.93;;
4738;SDS011;2383;48.632;10.156;2022-09-09T22:26:19;6.53;;;1.90;;
4738;SDS011;2383;48.632;10.156;2022-09-09T22:30:21;1.08;;;0.95;;
4738;SDS011;2383;48.632;10.156;2022-09-09T22:34:23;1.60;;;1.00;;
4738;SDS011;2383;48.632;10.156;2022-09-09T22:38:28;1.95;;;1.00;;
4738;SDS011;2383;48.632;10.156;2022-09-09T22:42:31;3.72;;;1.10;;
4738;SDS011;2383;48.632;10.156;2022-09-09T22:46:32;5.05;;;1.50;;
4738;SDS011;2383;48.632;10.156;2022-09-09T22:50:34;2.88;;;1.00;;
4738;SDS011;2383;48.632;10.156;2022-09-09T22:54:42;4.03;;;1.10;;
4738;SDS011;2383;48.632;10.156;2022-09-09T22:58:46;1.60;;;0.98;;
4738;SDS011;2383;48.632;10.156;2022-09-09T23:02:52;1.98;;;1.02;;
4738;SDS011;2383;48.632;10.156;2022-09-09T23:06:56;2.50;;;0.90;;
4738;SDS011;2383;48.632;10.156;2022-09-09T23:10:59;1.65;;;1.10;;
4738;SDS011;2383;48.632;10.156;2022-09-09T23:15:04;3.80;;;1.30;;
4738;SDS011;2383;48.632;10.156;2022-09-09T23:19:11;2.05;;;1.00;;
4738;SDS011;2383;48.632;10.156;2022-09-09T23:23:15;3.55;;;1.20;;
4738;SDS011;2383;48.632;10.156;2022-09-09T23:27:17;4.22;;;1.17;;
4738;SDS011;2383;48.632;10.156;2022-09-09T23:31:21;2.08;;;1.05;;
4738;SDS011;2383;48.632;10.156;2022-09-09T23:35:25;2.53;;;1.20;;
4738;SDS011;2383;48.632;10.156;2022-09-09T23:39:27;2.47;;;0.98;;
4738;SDS011;2383;48.632;10.156;2022-09-09T23:43:29;2.00;;;1.10;;
4738;SDS011;2383;48.632;10.156;2022-09-09T23:47:30;4.85;;;1.70;;
4738;SDS011;2383;48.632;10.156;2022-09-09T23:51:32;2.03;;;1.02;;
4738;SDS011;2383;48.632;10.156;2022-09-09T23:55:35;1.33;;;1.10;;
4738;SDS011;2383;48.632;10.156;2022-09-09T23:59:37;1.35;;;1.00;;
